sensor_id;sensor_type;location;lat;lon;timestamp;pressure;altitude;pressure_sealevel;temperature;humidity
17711;BME280;8975;57.718;12.134;2023-01-28T00:00:52;115940.22;;;-142.68;43.55
17711;BME280;8975;57.718;12.134;2023-01-28T00:03:17;115940.22;;;-142.68;44.09
17711;BME280;8975;57.718;12.134;2023-01-28T00:05:43;115940.22;;;-142.68;43.97
17711;BME280;8975;57.718;12.134;2023-01-28T00:08:08;115940.22;;;-142.68;44.21
17711;BME280;8975;57.718;12.134;2023-01-28T00:10:36;115940.22;;;-142.68;44.37
17711;BME280;8975;57.718;12.134;2023-01-28T00:13:05;115940.22;;;-142.68;43.81
17711;BME280;8975;57.718;12.134;2023-01-28T00:15:30;115940.22;;;-142.68;43.61
17711;BME280;8975;57.718;12.134;2023-01-28T00:17:55;115940.22;;;-142.68;43.52
17711;BME280;8975;57.718;12.134;2023-01-28T00:20:21;115940.22;;;-142.68;43.35
17711;BME280;8975;57.718;12.134;2023-01-28T00:22:47;115940.22;;;-142.68;43.52
17711;BME280;8975;57.718;12.134;2023-01-28T00:25:12;115940.22;;;-142.68;43.95
17711;BME280;8975;57.718;12.134;2023-01-28T00:27:38;115940.22;;;-142.68;43.56
17711;BME280;8975;57.718;12.134;2023-01-28T00:30:03;115940.22;;;-142.68;43.62
17711;BME280;8975;57.718;12.134;2023-01-28T00:32:29;115940.22;;;-142.68;43.57
17711;BME280;8975;57.718;12.134;2023-01-28T00:34:55;115940.22;;;-142.68;43.81
17711;BME280;8975;57.718;12.134;2023-01-28T00:37:21;115940.22;;;-142.68;44.46
17711;BME280;8975;57.718;12.134;2023-01-28T00:39:46;115940.22;;;-142.68;44.65
17711;BME280;8975;57.718;12.134;2023-01-28T00:42:12;115940.22;;;-142.68;45.19
17711;BME280;8975;57.718;12.134;2023-01-28T00:44:37;115940.22;;;-142.68;45.38
17711;BME280;8975;57.718;12.134;2023-01-28T00:47:02;115940.22;;;-142.68;45.29
17711;BME280;8975;57.718;12.134;2023-01-28T00:49:28;115940.22;;;-142.68;45.49
17711;BME280;8975;57.718;12.134;2023-01-28T00:51:53;115940.22;;;-142.68;45.20
17711;BME280;8975;57.718;12.134;2023-01-28T00:54:19;115940.22;;;-142.68;45.96
17711;BME280;8975;57.718;12.134;2023-01-28T00:56:44;115940.22;;;-142.68;46.47
17711;BME280;8975;57.718;12.134;2023-01-28T00:59:10;115940.22;;;-142.68;46.23
17711;BME280;8975;57.718;12.134;2023-01-28T01:01:36;115940.22;;;-142.68;46.24
17711;BME280;8975;57.718;12.134;2023-01-28T01:04:03;115940.22;;;-142.68;46.04
17711;BME280;8975;57.718;12.134;2023-01-28T01:06:36;115940.22;;;-142.68;46.37
17711;BME280;8975;57.718;12.134;2023-01-28T01:09:07;115940.22;;;-142.68;46.25
17711;BME280;8975;57.718;12.134;2023-01-28T01:11:32;115940.22;;;-142.68;46.61
17711;BME280;8975;57.718;12.134;2023-01-28T01:13:59;115940.22;;;-142.68;45.78
17711;BME280;8975;57.718;12.134;2023-01-28T01:16:27;115940.22;;;-142.68;46.78
17711;BME280;8975;57.718;12.134;2023-01-28T01:18:54;115940.22;;;-142.68;46.68
17711;BME280;8975;57.718;12.134;2023-01-28T01:21:23;115940.22;;;-142.68;46.63
17711;BME280;8975;57.718;12.134;2023-01-28T01:23:49;115940.22;;;-142.68;46.70
17711;BME280;8975;57.718;12.134;2023-01-28T01:26:15;115940.22;;;-142.68;46.92
17711;BME280;8975;57.718;12.134;2023-01-28T01:28:41;115940.22;;;-142.68;47.51
17711;BME280;8975;57.718;12.134;2023-01-28T01:31:11;115940.22;;;-142.68;47.30
17711;BME280;8975;57.718;12.134;2023-01-28T01:33:38;115940.22;;;-142.68;47.00
17711;BME280;8975;57.718;12.134;2023-01-28T01:36:04;115940.22;;;-142.68;46.63
17711;BME280;8975;57.718;12.134;2023-01-28T01:38:30;115940.22;;;-142.68;46.63
17711;BME280;8975;57.718;12.134;2023-01-28T01:40:59;115940.22;;;-142.68;46.19
17711;BME280;8975;57.718;12.134;2023-01-28T01:43:25;115940.22;;;-142.68;46.84
17711;BME280;8975;57.718;12.134;2023-01-28T01:46:09;115940.22;;;-142.68;46.55
17711;BME280;8975;57.718;12.134;2023-01-28T01:48:34;115940.22;;;-142.68;47.13
17711;BME280;8975;57.718;12.134;2023-01-28T01:51:07;115940.22;;;-142.68;47.49
17711;BME280;8975;57.718;12.134;2023-01-28T01:53:36;115940.22;;;-142.68;47.56
17711;BME280;8975;57.718;12.134;2023-01-28T01:56:05;115940.22;;;-142.68;47.17
17711;BME280;8975;57.718;12.134;2023-01-28T01:58:34;115940.22;;;-142.68;47.93
17711;BME280;8975;57.718;12.134;2023-01-28T02:01:01;115940.22;;;-142.68;47.09
17711;BME280;8975;57.718;12.134;2023-01-28T02:03:32;115940.22;;;-142.68;47.39
17711;BME280;8975;57.718;12.134;2023-01-28T02:06:02;115940.22;;;-142.68;47.05
17711;BME280;8975;57.718;12.134;2023-01-28T02:08:27;115940.22;;;-142.68;47.96
17711;BME280;8975;57.718;12.134;2023-01-28T02:10:56;115940.22;;;-142.68;47.71
17711;BME280;8975;57.718;12.134;2023-01-28T02:13:26;115940.22;;;-142.68;47.80
17711;BME280;8975;57.718;12.134;2023-01-28T02:15:54;115940.22;;;-142.68;47.26
17711;BME280;8975;57.718;12.134;2023-01-28T02:18:19;115940.22;;;-142.68;48.27
17711;BME280;8975;57.718;12.134;2023-01-28T02:23:49;115940.22;;;-142.68;48.40
17711;BME280;8975;57.718;12.134;2023-01-28T02:26:59;115940.22;;;-142.68;47.08
17711;BME280;8975;57.718;12.134;2023-01-28T02:29:36;115940.22;;;-142.68;48.00
17711;BME280;8975;57.718;12.134;2023-01-28T02:35:30;115940.22;;;-142.68;47.72
17711;BME280;8975;57.718;12.134;2023-01-28T02:38:07;115940.22;;;-142.68;48.53
17711;BME280;8975;57.718;12.134;2023-01-28T02:40:36;115940.22;;;-142.68;47.30
17711;BME280;8975;57.718;12.134;2023-01-28T02:43:33;115940.22;;;-142.68;49.43
17711;BME280;8975;57.718;12.134;2023-01-28T02:46:03;115940.22;;;-142.68;48.23
17711;BME280;8975;57.718;12.134;2023-01-28T02:48:52;115940.22;;;-142.68;48.39
17711;BME280;8975;57.718;12.134;2023-01-28T02:51:30;115940.22;;;-142.68;47.58
17711;BME280;8975;57.718;12.134;2023-01-28T02:54:13;115940.22;;;-142.68;47.51
17711;BME280;8975;57.718;12.134;2023-01-28T02:56:51;115940.22;;;-142.68;47.02
17711;BME280;8975;57.718;12.134;2023-01-28T02:59:27;115940.22;;;-142.68;47.91
17711;BME280;8975;57.718;12.134;2023-01-28T03:04:51;115940.22;;;-142.68;49.42
17711;BME280;8975;57.718;12.134;2023-01-28T03:07:21;115940.22;;;-142.68;47.81
17711;BME280;8975;57.718;12.134;2023-01-28T03:09:47;115940.22;;;-142.68;48.10
17711;BME280;8975;57.718;12.134;2023-01-28T03:12:18;115940.22;;;-142.68;47.59
17711;BME280;8975;57.718;12.134;2023-01-28T03:15:10;115940.22;;;-142.68;47.80
17711;BME280;8975;57.718;12.134;2023-01-28T03:21:10;115940.22;;;-142.68;47.95
17711;BME280;8975;57.718;12.134;2023-01-28T03:27:01;115940.22;;;-142.68;48.89
17711;BME280;8975;57.718;12.134;2023-01-28T03:29:47;115940.22;;;-142.68;49.07
17711;BME280;8975;57.718;12.134;2023-01-28T03:32:33;115940.22;;;-142.68;49.65
17711;BME280;8975;57.718;12.134;2023-01-28T03:35:21;115940.22;;;-142.68;48.97
17711;BME280;8975;57.718;12.134;2023-01-28T03:38:05;115940.22;;;-142.68;50.04
17711;BME280;8975;57.718;12.134;2023-01-28T03:40:56;115940.22;;;-142.68;49.22
17711;BME280;8975;57.718;12.134;2023-01-28T03:43:22;115940.22;;;-142.68;49.49
17711;BME280;8975;57.718;12.134;2023-01-28T03:45:48;115940.22;;;-142.68;48.47
17711;BME280;8975;57.718;12.134;2023-01-28T03:48:18;115940.22;;;-142.68;48.48
17711;BME280;8975;57.718;12.134;2023-01-28T03:50:44;115940.22;;;-142.68;48.91
17711;BME280;8975;57.718;12.134;2023-01-28T03:53:09;115940.22;;;-142.68;48.66
17711;BME280;8975;57.718;12.134;2023-01-28T03:55:38;115940.22;;;-142.68;48.01
17711;BME280;8975;57.718;12.134;2023-01-28T03:58:04;115940.22;;;-142.68;47.72
17711;BME280;8975;57.718;12.134;2023-01-28T04:00:32;115940.22;;;-142.68;48.27
17711;BME280;8975;57.718;12.134;2023-01-28T04:02:59;115940.22;;;-142.68;48.73
17711;BME280;8975;57.718;12.134;2023-01-28T04:05:25;115940.22;;;-142.68;48.10
17711;BME280;8975;57.718;12.134;2023-01-28T04:07:54;115940.22;;;-142.68;48.42
17711;BME280;8975;57.718;12.134;2023-01-28T04:10:20;115940.22;;;-142.68;49.18
17711;BME280;8975;57.718;12.134;2023-01-28T04:12:45;115940.22;;;-142.68;48.62
17711;BME280;8975;57.718;12.134;2023-01-28T04:15:14;115940.22;;;-142.68;47.71
17711;BME280;8975;57.718;12.134;2023-01-28T04:17:46;115940.22;;;-142.68;47.33
17711;BME280;8975;57.718;12.134;2023-01-28T04:20:12;115940.22;;;-142.68;47.54
17711;BME280;8975;57.718;12.134;2023-01-28T04:22:38;115940.22;;;-142.68;48.37
17711;BME280;8975;57.718;12.134;2023-01-28T04:25:03;115940.22;;;-142.68;49.28
17711;BME280;8975;57.718;12.134;2023-01-28T04:27:29;115940.22;;;-142.68;49.80
17711;BME280;8975;57.718;12.134;2023-01-28T04:29:54;115940.22;;;-142.68;48.63
17711;BME280;8975;57.718;12.134;2023-01-28T04:32:20;115940.22;;;-142.68;49.03
17711;BME280;8975;57.718;12.134;2023-01-28T04:34:45;115940.22;;;-142.68;48.87
17711;BME280;8975;57.718;12.134;2023-01-28T04:37:10;115940.22;;;-142.68;48.79
17711;BME280;8975;57.718;12.134;2023-01-28T04:39:36;115940.22;;;-142.68;49.24
17711;BME280;8975;57.718;12.134;2023-01-28T04:42:01;115940.22;;;-142.68;49.94
17711;BME280;8975;57.718;12.134;2023-01-28T04:44:26;115940.22;;;-142.68;49.71
17711;BME280;8975;57.718;12.134;2023-01-28T04:46:52;115940.22;;;-142.68;48.66
17711;BME280;8975;57.718;12.134;2023-01-28T04:49:17;115940.22;;;-142.68;48.51
17711;BME280;8975;57.718;12.134;2023-01-28T04:51:43;115940.22;;;-142.68;49.08
17711;BME280;8975;57.718;12.134;2023-01-28T04:54:08;115940.22;;;-142.68;49.50
17711;BME280;8975;57.718;12.134;2023-01-28T04:56:33;115940.22;;;-142.68;48.84
17711;BME280;8975;57.718;12.134;2023-01-28T04:58:59;115940.22;;;-142.68;49.16
17711;BME280;8975;57.718;12.134;2023-01-28T05:01:24;115940.22;;;-142.68;49.89
17711;BME280;8975;57.718;12.134;2023-01-28T05:03:50;115940.22;;;-142.68;48.95
17711;BME280;8975;57.718;12.134;2023-01-28T05:06:15;115940.22;;;-142.68;47.79
17711;BME280;8975;57.718;12.134;2023-01-28T05:08:41;115940.22;;;-142.68;48.19
17711;BME280;8975;57.718;12.134;2023-01-28T05:11:06;115940.22;;;-142.68;48.57
17711;BME280;8975;57.718;12.134;2023-01-28T05:13:32;115940.22;;;-142.68;48.60
17711;BME280;8975;57.718;12.134;2023-01-28T05:15:57;115940.22;;;-142.68;48.49
17711;BME280;8975;57.718;12.134;2023-01-28T05:18:23;115940.22;;;-142.68;47.93
17711;BME280;8975;57.718;12.134;2023-01-28T05:20:48;115940.22;;;-142.68;49.30
17711;BME280;8975;57.718;12.134;2023-01-28T05:23:14;115940.22;;;-142.68;49.71
17711;BME280;8975;57.718;12.134;2023-01-28T05:25:39;115940.22;;;-142.68;49.15
17711;BME280;8975;57.718;12.134;2023-01-28T05:28:04;115940.22;;;-142.68;49.59
17711;BME280;8975;57.718;12.134;2023-01-28T05:30:30;115940.22;;;-142.68;49.30
17711;BME280;8975;57.718;12.134;2023-01-28T05:32:55;115940.22;;;-142.68;49.28
17711;BME280;8975;57.718;12.134;2023-01-28T05:35:21;115940.22;;;-142.68;49.12
17711;BME280;8975;57.718;12.134;2023-01-28T05:37:47;115940.22;;;-142.68;49.50
17711;BME280;8975;57.718;12.134;2023-01-28T05:40:12;115940.22;;;-142.68;49.71
17711;BME280;8975;57.718;12.134;2023-01-28T05:42:38;115940.22;;;-142.68;49.41
17711;BME280;8975;57.718;12.134;2023-01-28T05:45:04;115940.22;;;-142.68;50.50
17711;BME280;8975;57.718;12.134;2023-01-28T05:47:29;115940.22;;;-142.68;50.30
17711;BME280;8975;57.718;12.134;2023-01-28T05:49:55;115940.22;;;-142.68;49.31
17711;BME280;8975;57.718;12.134;2023-01-28T05:52:20;115940.22;;;-142.68;49.13
17711;BME280;8975;57.718;12.134;2023-01-28T05:54:45;115940.22;;;-142.68;49.74
17711;BME280;8975;57.718;12.134;2023-01-28T05:57:11;115940.22;;;-142.68;48.74
17711;BME280;8975;57.718;12.134;2023-01-28T05:59:36;115940.22;;;-142.68;49.77
17711;BME280;8975;57.718;12.134;2023-01-28T06:02:02;115940.22;;;-142.68;48.85
17711;BME280;8975;57.718;12.134;2023-01-28T06:04:27;115940.22;;;-142.68;48.86
17711;BME280;8975;57.718;12.134;2023-01-28T06:06:52;115940.22;;;-142.68;48.52
17711;BME280;8975;57.718;12.134;2023-01-28T06:09:18;115940.22;;;-142.68;48.62
17711;BME280;8975;57.718;12.134;2023-01-28T06:11:46;115940.22;;;-142.68;48.58
17711;BME280;8975;57.718;12.134;2023-01-28T06:14:12;115940.22;;;-142.68;49.79
17711;BME280;8975;57.718;12.134;2023-01-28T06:16:37;115940.22;;;-142.68;49.30
17711;BME280;8975;57.718;12.134;2023-01-28T06:19:03;115940.22;;;-142.68;49.12
17711;BME280;8975;57.718;12.134;2023-01-28T06:21:28;115940.22;;;-142.68;49.34
17711;BME280;8975;57.718;12.134;2023-01-28T06:23:53;115940.22;;;-142.68;50.13
17711;BME280;8975;57.718;12.134;2023-01-28T06:26:19;115940.22;;;-142.68;50.57
17711;BME280;8975;57.718;12.134;2023-01-28T06:28:44;115940.22;;;-142.68;50.86
17711;BME280;8975;57.718;12.134;2023-01-28T06:31:10;115940.22;;;-142.68;50.66
17711;BME280;8975;57.718;12.134;2023-01-28T06:33:35;115940.22;;;-142.68;51.30
17711;BME280;8975;57.718;12.134;2023-01-28T06:36:04;115940.22;;;-142.68;51.15
17711;BME280;8975;57.718;12.134;2023-01-28T06:38:33;115940.22;;;-142.68;51.42
17711;BME280;8975;57.718;12.134;2023-01-28T06:40:59;115940.22;;;-142.68;50.73
17711;BME280;8975;57.718;12.134;2023-01-28T06:43:24;115940.22;;;-142.68;50.54
17711;BME280;8975;57.718;12.134;2023-01-28T06:45:55;115940.22;;;-142.68;50.65
17711;BME280;8975;57.718;12.134;2023-01-28T06:48:22;115940.22;;;-142.68;50.82
17711;BME280;8975;57.718;12.134;2023-01-28T06:50:48;115940.22;;;-142.68;50.29
17711;BME280;8975;57.718;12.134;2023-01-28T06:53:14;115940.22;;;-142.68;51.04
17711;BME280;8975;57.718;12.134;2023-01-28T06:55:39;115940.22;;;-142.68;51.45
17711;BME280;8975;57.718;12.134;2023-01-28T06:58:05;115940.22;;;-142.68;50.96
17711;BME280;8975;57.718;12.134;2023-01-28T07:00:30;115940.22;;;-142.68;50.82
17711;BME280;8975;57.718;12.134;2023-01-28T07:02:56;115940.22;;;-142.68;51.21
17711;BME280;8975;57.718;12.134;2023-01-28T07:05:21;115940.22;;;-142.68;50.04
17711;BME280;8975;57.718;12.134;2023-01-28T07:07:47;115940.22;;;-142.68;50.06
17711;BME280;8975;57.718;12.134;2023-01-28T07:10:12;115940.22;;;-142.68;50.68
17711;BME280;8975;57.718;12.134;2023-01-28T07:12:38;115940.22;;;-142.68;50.98
17711;BME280;8975;57.718;12.134;2023-01-28T07:15:04;115940.22;;;-142.68;49.65
17711;BME280;8975;57.718;12.134;2023-01-28T07:17:29;115940.22;;;-142.68;51.19
17711;BME280;8975;57.718;12.134;2023-01-28T07:19:55;115940.22;;;-142.68;50.20
17711;BME280;8975;57.718;12.134;2023-01-28T07:22:20;115940.22;;;-142.68;50.52
17711;BME280;8975;57.718;12.134;2023-01-28T07:24:45;115940.22;;;-142.68;51.08
17711;BME280;8975;57.718;12.134;2023-01-28T07:27:11;115940.22;;;-142.68;49.98
17711;BME280;8975;57.718;12.134;2023-01-28T07:29:36;115940.22;;;-142.68;50.21
17711;BME280;8975;57.718;12.134;2023-01-28T07:32:02;115940.22;;;-142.68;50.97
17711;BME280;8975;57.718;12.134;2023-01-28T07:34:29;115940.22;;;-142.68;50.52
17711;BME280;8975;57.718;12.134;2023-01-28T07:36:54;115940.22;;;-142.68;51.35
17711;BME280;8975;57.718;12.134;2023-01-28T07:39:19;115940.22;;;-142.68;52.06
17711;BME280;8975;57.718;12.134;2023-01-28T07:41:45;115940.22;;;-142.68;51.46
17711;BME280;8975;57.718;12.134;2023-01-28T07:44:11;115940.22;;;-142.68;50.85
17711;BME280;8975;57.718;12.134;2023-01-28T07:46:37;115940.22;;;-142.68;52.53
17711;BME280;8975;57.718;12.134;2023-01-28T07:49:02;115940.22;;;-142.68;51.47
17711;BME280;8975;57.718;12.134;2023-01-28T07:51:28;115940.22;;;-142.68;51.60
17711;BME280;8975;57.718;12.134;2023-01-28T07:53:53;115940.22;;;-142.68;51.89
17711;BME280;8975;57.718;12.134;2023-01-28T07:56:19;115940.22;;;-142.68;51.85
17711;BME280;8975;57.718;12.134;2023-01-28T07:58:44;115940.22;;;-142.68;51.52
17711;BME280;8975;57.718;12.134;2023-01-28T08:01:09;115940.22;;;-142.68;51.08
17711;BME280;8975;57.718;12.134;2023-01-28T08:03:35;115940.22;;;-142.68;50.53
17711;BME280;8975;57.718;12.134;2023-01-28T08:06:00;115940.22;;;-142.68;49.89
17711;BME280;8975;57.718;12.134;2023-01-28T08:08:26;115940.22;;;-142.68;49.90
17711;BME280;8975;57.718;12.134;2023-01-28T08:10:52;115940.22;;;-142.68;50.21
17711;BME280;8975;57.718;12.134;2023-01-28T08:13:18;115940.22;;;-142.68;50.24
17711;BME280;8975;57.718;12.134;2023-01-28T08:15:44;115940.22;;;-142.68;49.93
17711;BME280;8975;57.718;12.134;2023-01-28T08:18:12;115940.22;;;-142.68;50.17
17711;BME280;8975;57.718;12.134;2023-01-28T08:20:38;115940.22;;;-142.68;50.61
17711;BME280;8975;57.718;12.134;2023-01-28T08:23:07;115940.22;;;-142.68;50.58
17711;BME280;8975;57.718;12.134;2023-01-28T08:25:34;115940.22;;;-142.68;49.44
17711;BME280;8975;57.718;12.134;2023-01-28T08:28:00;115940.22;;;-142.68;50.28
17711;BME280;8975;57.718;12.134;2023-01-28T08:30:26;115940.22;;;-142.68;49.92
17711;BME280;8975;57.718;12.134;2023-01-28T08:32:55;115940.22;;;-142.68;49.65
17711;BME280;8975;57.718;12.134;2023-01-28T08:35:20;115940.22;;;-142.68;50.55
17711;BME280;8975;57.718;12.134;2023-01-28T08:37:46;115940.22;;;-142.68;50.16
17711;BME280;8975;57.718;12.134;2023-01-28T08:40:11;115940.22;;;-142.68;50.56
17711;BME280;8975;57.718;12.134;2023-01-28T08:42:37;115940.22;;;-142.68;49.71
17711;BME280;8975;57.718;12.134;2023-01-28T08:45:02;115940.22;;;-142.68;50.47
17711;BME280;8975;57.718;12.134;2023-01-28T08:47:28;115940.22;;;-142.68;50.01
17711;BME280;8975;57.718;12.134;2023-01-28T08:49:53;115940.22;;;-142.68;51.30
17711;BME280;8975;57.718;12.134;2023-01-28T08:52:19;115940.22;;;-142.68;50.86
17711;BME280;8975;57.718;12.134;2023-01-28T08:54:44;115940.22;;;-142.68;51.23
17711;BME280;8975;57.718;12.134;2023-01-28T08:57:10;115940.22;;;-142.68;50.80
17711;BME280;8975;57.718;12.134;2023-01-28T08:59:35;115940.22;;;-142.68;50.05
17711;BME280;8975;57.718;12.134;2023-01-28T09:02:05;115940.22;;;-142.68;49.63
17711;BME280;8975;57.718;12.134;2023-01-28T09:04:30;115940.22;;;-142.68;50.54
17711;BME280;8975;57.718;12.134;2023-01-28T09:06:55;115940.22;;;-142.68;49.93
17711;BME280;8975;57.718;12.134;2023-01-28T09:09:21;115940.22;;;-142.68;50.61
17711;BME280;8975;57.718;12.134;2023-01-28T09:11:46;115940.22;;;-142.68;49.63
17711;BME280;8975;57.718;12.134;2023-01-28T09:14:11;115940.22;;;-142.68;49.56
17711;BME280;8975;57.718;12.134;2023-01-28T09:16:37;115940.22;;;-142.68;48.88
17711;BME280;8975;57.718;12.134;2023-01-28T09:19:02;115940.22;;;-142.68;49.74
17711;BME280;8975;57.718;12.134;2023-01-28T09:21:28;115940.22;;;-142.68;50.61
17711;BME280;8975;57.718;12.134;2023-01-28T09:23:53;115940.22;;;-142.68;50.30
17711;BME280;8975;57.718;12.134;2023-01-28T09:26:19;115940.22;;;-142.68;49.84
17711;BME280;8975;57.718;12.134;2023-01-28T09:28:46;115940.22;;;-142.68;50.67
17711;BME280;8975;57.718;12.134;2023-01-28T09:31:11;115940.22;;;-142.68;50.82
17711;BME280;8975;57.718;12.134;2023-01-28T09:33:38;115940.22;;;-142.68;50.54
17711;BME280;8975;57.718;12.134;2023-01-28T09:36:06;115940.22;;;-142.68;50.55
17711;BME280;8975;57.718;12.134;2023-01-28T09:38:32;115940.22;;;-142.68;51.65
17711;BME280;8975;57.718;12.134;2023-01-28T09:40:59;115940.22;;;-142.68;51.89
17711;BME280;8975;57.718;12.134;2023-01-28T09:43:39;115940.22;;;-142.68;51.44
17711;BME280;8975;57.718;12.134;2023-01-28T09:46:10;115940.22;;;-142.68;51.30
17711;BME280;8975;57.718;12.134;2023-01-28T09:48:40;115940.22;;;-142.68;52.54
17711;BME280;8975;57.718;12.134;2023-01-28T09:51:21;115940.22;;;-142.68;51.59
17711;BME280;8975;57.718;12.134;2023-01-28T09:53:53;115940.22;;;-142.68;50.75
17711;BME280;8975;57.718;12.134;2023-01-28T09:56:29;115940.22;;;-142.68;50.95
17711;BME280;8975;57.718;12.134;2023-01-28T09:58:58;115940.22;;;-142.68;51.23
17711;BME280;8975;57.718;12.134;2023-01-28T10:01:40;115940.22;;;-142.68;51.01
17711;BME280;8975;57.718;12.134;2023-01-28T10:19:30;115940.22;;;-142.68;51.28
17711;BME280;8975;57.718;12.134;2023-01-28T10:22:04;115940.22;;;-142.68;51.19
17711;BME280;8975;57.718;12.134;2023-01-28T10:24:37;115940.22;;;-142.68;51.15
17711;BME280;8975;57.718;12.134;2023-01-28T10:27:13;115940.22;;;-142.68;50.72
17711;BME280;8975;57.718;12.134;2023-01-28T10:29:39;115940.22;;;-142.68;52.50
17711;BME280;8975;57.718;12.134;2023-01-28T10:32:20;115940.22;;;-142.68;51.83
17711;BME280;8975;57.718;12.134;2023-01-28T10:34:48;115940.22;;;-142.68;50.89
17711;BME280;8975;57.718;12.134;2023-01-28T10:37:14;115940.22;;;-142.68;51.59
17711;BME280;8975;57.718;12.134;2023-01-28T10:39:40;115940.22;;;-142.68;51.44
17711;BME280;8975;57.718;12.134;2023-01-28T10:42:29;115940.22;;;-142.68;51.86
17711;BME280;8975;57.718;12.134;2023-01-28T10:47:45;115940.22;;;-142.68;50.78
17711;BME280;8975;57.718;12.134;2023-01-28T10:50:25;115940.22;;;-142.68;51.59
17711;BME280;8975;57.718;12.134;2023-01-28T10:55:19;115940.22;;;-142.68;51.02
17711;BME280;8975;57.718;12.134;2023-01-28T10:57:45;115940.22;;;-142.68;51.30
17711;BME280;8975;57.718;12.134;2023-01-28T11:00:23;115940.22;;;-142.68;52.35
17711;BME280;8975;57.718;12.134;2023-01-28T11:02:50;115940.22;;;-142.68;52.21
17711;BME280;8975;57.718;12.134;2023-01-28T11:05:34;115940.22;;;-142.68;53.39
17711;BME280;8975;57.718;12.134;2023-01-28T11:08:12;115940.22;;;-142.68;52.32
17711;BME280;8975;57.718;12.134;2023-01-28T11:10:39;115940.22;;;-142.68;53.47
17711;BME280;8975;57.718;12.134;2023-01-28T11:13:26;115940.22;;;-142.68;53.19
17711;BME280;8975;57.718;12.134;2023-01-28T11:18:32;115940.22;;;-142.68;52.04
17711;BME280;8975;57.718;12.134;2023-01-28T11:21:02;115940.22;;;-142.68;51.93
17711;BME280;8975;57.718;12.134;2023-01-28T11:23:32;115940.22;;;-142.68;51.49
17711;BME280;8975;57.718;12.134;2023-01-28T11:26:06;115940.22;;;-142.68;51.41
17711;BME280;8975;57.718;12.134;2023-01-28T11:28:34;115940.22;;;-142.68;51.83
17711;BME280;8975;57.718;12.134;2023-01-28T11:31:03;115940.22;;;-142.68;51.62
17711;BME280;8975;57.718;12.134;2023-01-28T11:33:36;115940.22;;;-142.68;52.26
17711;BME280;8975;57.718;12.134;2023-01-28T11:36:11;115940.22;;;-142.68;51.91
17711;BME280;8975;57.718;12.134;2023-01-28T11:38:56;115940.22;;;-142.68;51.61
17711;BME280;8975;57.718;12.134;2023-01-28T11:41:31;115940.22;;;-142.68;52.42
17711;BME280;8975;57.718;12.134;2023-01-28T11:43:58;115940.22;;;-142.68;53.92
17711;BME280;8975;57.718;12.134;2023-01-28T11:59:55;115940.22;;;-142.68;52.75
17711;BME280;8975;57.718;12.134;2023-01-28T12:10:28;115940.22;;;-142.68;53.84
17711;BME280;8975;57.718;12.134;2023-01-28T12:26:54;115940.22;;;-142.68;54.14
17711;BME280;8975;57.718;12.134;2023-01-28T12:32:27;115940.22;;;-142.68;55.25
17711;BME280;8975;57.718;12.134;2023-01-28T12:43:14;115940.22;;;-142.68;53.85
17711;BME280;8975;57.718;12.134;2023-01-28T12:45:45;115940.22;;;-142.68;54.65
17711;BME280;8975;57.718;12.134;2023-01-28T12:48:31;115940.22;;;-142.68;53.61
17711;BME280;8975;57.718;12.134;2023-01-28T12:51:32;115940.22;;;-142.68;55.82
17711;BME280;8975;57.718;12.134;2023-01-28T12:53:56;115940.22;;;-142.68;54.58
17711;BME280;8975;57.718;12.134;2023-01-28T12:56:32;115940.22;;;-142.68;55.45
17711;BME280;8975;57.718;12.134;2023-01-28T12:59:14;115940.22;;;-142.68;55.35
17711;BME280;8975;57.718;12.134;2023-01-28T13:04:41;115940.22;;;-142.68;54.67
17711;BME280;8975;57.718;12.134;2023-01-28T13:07:23;115940.22;;;-142.68;54.03
17711;BME280;8975;57.718;12.134;2023-01-28T13:09:55;115940.22;;;-142.68;54.68
17711;BME280;8975;57.718;12.134;2023-01-28T13:12:23;115940.22;;;-142.68;54.86
17711;BME280;8975;57.718;12.134;2023-01-28T13:14:49;115940.22;;;-142.68;54.56
17711;BME280;8975;57.718;12.134;2023-01-28T13:17:30;115940.22;;;-142.68;55.28
17711;BME280;8975;57.718;12.134;2023-01-28T13:19:59;115940.22;;;-142.68;54.91
17711;BME280;8975;57.718;12.134;2023-01-28T13:22:33;115940.22;;;-142.68;54.75
17711;BME280;8975;57.718;12.134;2023-01-28T13:25:18;115940.22;;;-142.68;54.29
17711;BME280;8975;57.718;12.134;2023-01-28T13:27:56;115940.22;;;-142.68;54.05
17711;BME280;8975;57.718;12.134;2023-01-28T13:30:33;115940.22;;;-142.68;54.15
17711;BME280;8975;57.718;12.134;2023-01-28T13:33:03;115940.22;;;-142.68;54.74
17711;BME280;8975;57.718;12.134;2023-01-28T13:35:37;115940.22;;;-142.68;55.44
17711;BME280;8975;57.718;12.134;2023-01-28T13:38:16;115940.22;;;-142.68;55.43
17711;BME280;8975;57.718;12.134;2023-01-28T13:40:43;115940.22;;;-142.68;54.50
17711;BME280;8975;57.718;12.134;2023-01-28T13:46:00;115940.22;;;-142.68;54.92
17711;BME280;8975;57.718;12.134;2023-01-28T13:48:49;115940.22;;;-142.68;54.05
17711;BME280;8975;57.718;12.134;2023-01-28T13:51:26;115940.22;;;-142.68;54.76
17711;BME280;8975;57.718;12.134;2023-01-28T13:54:03;115940.22;;;-142.68;54.71
17711;BME280;8975;57.718;12.134;2023-01-28T13:56:37;115940.22;;;-142.68;55.85
17711;BME280;8975;57.718;12.134;2023-01-28T14:18:25;115940.22;;;-142.68;53.21
17711;BME280;8975;57.718;12.134;2023-01-28T14:20:54;115940.22;;;-142.68;54.38
17711;BME280;8975;57.718;12.134;2023-01-28T14:23:21;115940.22;;;-142.68;53.89
17711;BME280;8975;57.718;12.134;2023-01-28T14:29:01;115940.22;;;-142.68;54.70
17711;BME280;8975;57.718;12.134;2023-01-28T14:31:34;115940.22;;;-142.68;54.78
17711;BME280;8975;57.718;12.134;2023-01-28T14:36:48;115940.22;;;-142.68;53.37